sensor_id;sensor_type;location;lat;lon;timestamp;P1;durP1;ratioP1;P2;durP2;ratioP2
20375;SDS011;10347;51.828;6.466;2023-04-25T00:01:31;2.28;;;1.75;;
20375;SDS011;10347;51.828;6.466;2023-04-25T00:04:00;3.55;;;2.20;;
20375;SDS011;10347;51.828;6.466;2023-04-25T00:06:27;5.05;;;2.22;;
20375;SDS011;10347;51.828;6.466;2023-04-25T00:08:54;5.50;;;2.35;;
20375;SDS011;10347;51.828;6.466;2023-04-25T00:11:21;5.30;;;2.22;;
20375;SDS011;10347;51.828;6.466;2023-04-25T00:13:47;4.28;;;2.20;;
20375;SDS011;10347;51.828;6.466;2023-04-25T00:16:14;4.15;;;2.22;;
20375;SDS011;10347;51.828;6.466;2023-04-25T00:18:41;7.25;;;2.15;;
20375;SDS011;10347;51.828;6.466;2023-04-25T00:21:07;2.72;;;2.17;;
20375;SDS011;10347;51.828;6.466;2023-04-25T00:23:33;3.65;;;2.03;;
20375;SDS011;10347;51.828;6.466;2023-04-25T00:26:01;5.50;;;1.90;;
20375;SDS011;10347;51.828;6.466;2023-04-25T00:28:27;5.07;;;2.30;;
20375;SDS011;10347;51.828;6.466;2023-04-25T00:30:52;4.75;;;1.90;;
20375;SDS011;10347;51.828;6.466;2023-04-25T00:33:18;5.88;;;2.38;;
20375;SDS011;10347;51.828;6.466;2023-04-25T00:35:44;4.18;;;2.08;;
20375;SDS011;10347;51.828;6.466;2023-04-25T00:38:09;7.57;;;2.60;;
20375;SDS011;10347;51.828;6.466;2023-04-25T00:40:35;6.80;;;2.50;;
20375;SDS011;10347;51.828;6.466;2023-04-25T00:43:00;4.15;;;2.10;;
20375;SDS011;10347;51.828;6.466;2023-04-25T00:45:27;3.47;;;2.40;;
20375;SDS011;10347;51.828;6.466;2023-04-25T00:47:54;8.52;;;2.80;;
20375;SDS011;10347;51.828;6.466;2023-04-25T00:50:20;5.00;;;2.05;;
20375;SDS011;10347;51.828;6.466;2023-04-25T00:52:45;8.75;;;2.35;;
20375;SDS011;10347;51.828;6.466;2023-04-25T00:55:11;4.63;;;2.20;;
20375;SDS011;10347;51.828;6.466;2023-04-25T00:57:37;6.28;;;2.10;;
20375;SDS011;10347;51.828;6.466;2023-04-25T01:00:04;3.00;;;2.38;;
20375;SDS011;10347;51.828;6.466;2023-04-25T01:02:31;9.32;;;2.78;;
20375;SDS011;10347;51.828;6.466;2023-04-25T01:04:58;4.28;;;2.13;;
20375;SDS011;10347;51.828;6.466;2023-04-25T01:07:23;3.85;;;1.90;;
20375;SDS011;10347;51.828;6.466;2023-04-25T01:09:51;4.30;;;2.22;;
20375;SDS011;10347;51.828;6.466;2023-04-25T01:12:17;5.53;;;2.22;;
20375;SDS011;10347;51.828;6.466;2023-04-25T01:14:43;3.92;;;2.35;;
20375;SDS011;10347;51.828;6.466;2023-04-25T01:17:09;4.70;;;2.58;;
20375;SDS011;10347;51.828;6.466;2023-04-25T01:19:35;4.13;;;2.20;;
20375;SDS011;10347;51.828;6.466;2023-04-25T01:22:00;4.30;;;2.20;;
20375;SDS011;10347;51.828;6.466;2023-04-25T01:24:26;3.13;;;2.20;;
20375;SDS011;10347;51.828;6.466;2023-04-25T01:26:52;2.28;;;1.92;;
20375;SDS011;10347;51.828;6.466;2023-04-25T01:29:21;4.30;;;2.10;;
20375;SDS011;10347;51.828;6.466;2023-04-25T01:31:47;5.20;;;2.38;;
20375;SDS011;10347;51.828;6.466;2023-04-25T01:34:13;2.63;;;2.42;;
20375;SDS011;10347;51.828;6.466;2023-04-25T01:36:38;5.32;;;2.47;;
20375;SDS011;10347;51.828;6.466;2023-04-25T01:39:04;6.93;;;2.40;;
20375;SDS011;10347;51.828;6.466;2023-04-25T01:41:31;6.72;;;3.00;;
20375;SDS011;10347;51.828;6.466;2023-04-25T01:43:57;7.97;;;2.75;;
20375;SDS011;10347;51.828;6.466;2023-04-25T01:46:22;7.50;;;2.95;;
20375;SDS011;10347;51.828;6.466;2023-04-25T01:48:48;9.15;;;2.90;;
20375;SDS011;10347;51.828;6.466;2023-04-25T01:51:14;6.47;;;3.08;;
20375;SDS011;10347;51.828;6.466;2023-04-25T01:53:40;4.78;;;2.80;;
20375;SDS011;10347;51.828;6.466;2023-04-25T01:56:06;6.55;;;2.97;;
20375;SDS011;10347;51.828;6.466;2023-04-25T01:58:32;8.40;;;3.17;;
20375;SDS011;10347;51.828;6.466;2023-04-25T02:00:57;9.18;;;3.13;;
20375;SDS011;10347;51.828;6.466;2023-04-25T02:03:23;5.43;;;2.83;;
20375;SDS011;10347;51.828;6.466;2023-04-25T02:05:49;7.57;;;4.07;;
20375;SDS011;10347;51.828;6.466;2023-04-25T02:08:15;6.97;;;2.72;;
20375;SDS011;10347;51.828;6.466;2023-04-25T02:10:41;9.30;;;3.30;;
20375;SDS011;10347;51.828;6.466;2023-04-25T02:13:07;4.85;;;3.15;;
20375;SDS011;10347;51.828;6.466;2023-04-25T02:15:33;9.52;;;3.35;;
20375;SDS011;10347;51.828;6.466;2023-04-25T02:17:58;9.93;;;3.72;;
20375;SDS011;10347;51.828;6.466;2023-04-25T02:20:25;6.18;;;3.05;;
20375;SDS011;10347;51.828;6.466;2023-04-25T02:22:52;7.82;;;3.17;;
20375;SDS011;10347;51.828;6.466;2023-04-25T02:25:18;10.48;;;3.58;;
20375;SDS011;10347;51.828;6.466;2023-04-25T02:27:44;8.18;;;3.63;;
20375;SDS011;10347;51.828;6.466;2023-04-25T02:30:10;8.40;;;3.65;;
20375;SDS011;10347;51.828;6.466;2023-04-25T02:32:36;10.52;;;4.10;;
20375;SDS011;10347;51.828;6.466;2023-04-25T02:35:02;5.63;;;3.35;;
20375;SDS011;10347;51.828;6.466;2023-04-25T02:37:29;7.90;;;4.22;;
20375;SDS011;10347;51.828;6.466;2023-04-25T02:39:55;8.75;;;4.03;;
20375;SDS011;10347;51.828;6.466;2023-04-25T02:42:21;7.90;;;3.85;;
20375;SDS011;10347;51.828;6.466;2023-04-25T02:44:47;10.30;;;3.53;;
20375;SDS011;10347;51.828;6.466;2023-04-25T02:47:12;7.38;;;3.78;;
20375;SDS011;10347;51.828;6.466;2023-04-25T02:49:38;8.80;;;3.78;;
20375;SDS011;10347;51.828;6.466;2023-04-25T02:52:03;7.60;;;3.60;;
20375;SDS011;10347;51.828;6.466;2023-04-25T02:54:29;5.63;;;3.22;;
20375;SDS011;10347;51.828;6.466;2023-04-25T02:56:55;11.95;;;3.92;;
20375;SDS011;10347;51.828;6.466;2023-04-25T02:59:20;7.38;;;3.53;;
20375;SDS011;10347;51.828;6.466;2023-04-25T03:01:46;8.43;;;3.85;;
20375;SDS011;10347;51.828;6.466;2023-04-25T03:04:12;7.35;;;3.00;;
20375;SDS011;10347;51.828;6.466;2023-04-25T03:06:37;8.10;;;3.85;;
20375;SDS011;10347;51.828;6.466;2023-04-25T03:09:03;7.20;;;3.50;;
20375;SDS011;10347;51.828;6.466;2023-04-25T03:11:28;6.00;;;3.33;;
20375;SDS011;10347;51.828;6.466;2023-04-25T03:13:54;12.00;;;3.55;;
20375;SDS011;10347;51.828;6.466;2023-04-25T03:16:20;7.40;;;2.85;;
20375;SDS011;10347;51.828;6.466;2023-04-25T03:18:46;6.45;;;3.17;;
20375;SDS011;10347;51.828;6.466;2023-04-25T03:21:12;13.23;;;3.53;;
20375;SDS011;10347;51.828;6.466;2023-04-25T03:23:37;10.65;;;4.20;;
20375;SDS011;10347;51.828;6.466;2023-04-25T03:26:03;11.10;;;4.10;;
20375;SDS011;10347;51.828;6.466;2023-04-25T03:28:29;6.55;;;3.15;;
20375;SDS011;10347;51.828;6.466;2023-04-25T03:30:54;7.63;;;2.78;;
20375;SDS011;10347;51.828;6.466;2023-04-25T03:33:20;9.77;;;3.13;;
20375;SDS011;10347;51.828;6.466;2023-04-25T03:35:45;11.10;;;3.67;;
20375;SDS011;10347;51.828;6.466;2023-04-25T03:38:11;5.97;;;3.22;;
20375;SDS011;10347;51.828;6.466;2023-04-25T03:40:37;11.68;;;3.25;;
20375;SDS011;10347;51.828;6.466;2023-04-25T03:43:02;11.35;;;3.45;;
20375;SDS011;10347;51.828;6.466;2023-04-25T03:45:28;13.35;;;3.28;;
20375;SDS011;10347;51.828;6.466;2023-04-25T03:47:53;12.60;;;4.13;;
20375;SDS011;10347;51.828;6.466;2023-04-25T03:50:19;9.95;;;3.38;;
20375;SDS011;10347;51.828;6.466;2023-04-25T03:52:45;8.43;;;3.63;;
20375;SDS011;10347;51.828;6.466;2023-04-25T03:55:10;12.13;;;3.50;;
20375;SDS011;10347;51.828;6.466;2023-04-25T03:57:36;7.90;;;3.28;;
20375;SDS011;10347;51.828;6.466;2023-04-25T04:00:01;8.15;;;3.08;;
20375;SDS011;10347;51.828;6.466;2023-04-25T04:02:28;9.52;;;3.63;;
20375;SDS011;10347;51.828;6.466;2023-04-25T04:04:54;13.50;;;3.22;;
20375;SDS011;10347;51.828;6.466;2023-04-25T04:07:21;14.52;;;4.40;;
20375;SDS011;10347;51.828;6.466;2023-04-25T04:09:47;10.85;;;4.38;;
20375;SDS011;10347;51.828;6.466;2023-04-25T04:12:12;10.25;;;3.42;;
20375;SDS011;10347;51.828;6.466;2023-04-25T04:14:38;10.23;;;3.20;;
20375;SDS011;10347;51.828;6.466;2023-04-25T04:17:03;11.95;;;4.30;;
20375;SDS011;10347;51.828;6.466;2023-04-25T04:19:29;7.38;;;3.28;;
20375;SDS011;10347;51.828;6.466;2023-04-25T04:21:54;6.80;;;3.28;;
20375;SDS011;10347;51.828;6.466;2023-04-25T04:24:20;10.48;;;3.58;;
20375;SDS011;10347;51.828;6.466;2023-04-25T04:26:45;7.10;;;2.95;;
20375;SDS011;10347;51.828;6.466;2023-04-25T04:29:11;7.97;;;3.83;;
20375;SDS011;10347;51.828;6.466;2023-04-25T04:31:45;8.43;;;3.63;;
20375;SDS011;10347;51.828;6.466;2023-04-25T04:34:12;16.10;;;3.75;;
20375;SDS011;10347;51.828;6.466;2023-04-25T04:36:38;8.32;;;3.15;;
20375;SDS011;10347;51.828;6.466;2023-04-25T04:39:05;7.85;;;3.20;;
20375;SDS011;10347;51.828;6.466;2023-04-25T04:41:31;10.85;;;3.85;;
20375;SDS011;10347;51.828;6.466;2023-04-25T04:43:57;8.10;;;3.15;;
20375;SDS011;10347;51.828;6.466;2023-04-25T04:46:22;7.75;;;3.00;;
20375;SDS011;10347;51.828;6.466;2023-04-25T04:48:49;6.85;;;2.65;;
20375;SDS011;10347;51.828;6.466;2023-04-25T04:51:15;8.45;;;3.00;;
20375;SDS011;10347;51.828;6.466;2023-04-25T04:53:40;10.85;;;3.35;;
20375;SDS011;10347;51.828;6.466;2023-04-25T04:56:06;8.90;;;3.60;;
20375;SDS011;10347;51.828;6.466;2023-04-25T04:58:31;12.10;;;3.63;;
20375;SDS011;10347;51.828;6.466;2023-04-25T05:00:57;7.75;;;3.28;;
20375;SDS011;10347;51.828;6.466;2023-04-25T05:03:22;5.78;;;3.65;;
20375;SDS011;10347;51.828;6.466;2023-04-25T05:05:48;9.38;;;3.70;;
20375;SDS011;10347;51.828;6.466;2023-04-25T05:08:14;9.50;;;3.67;;
20375;SDS011;10347;51.828;6.466;2023-04-25T05:10:39;7.85;;;3.75;;
20375;SDS011;10347;51.828;6.466;2023-04-25T05:13:05;7.22;;;3.28;;
20375;SDS011;10347;51.828;6.466;2023-04-25T05:15:30;10.32;;;3.42;;
20375;SDS011;10347;51.828;6.466;2023-04-25T05:17:56;8.70;;;3.75;;
20375;SDS011;10347;51.828;6.466;2023-04-25T05:20:22;9.98;;;3.45;;
20375;SDS011;10347;51.828;6.466;2023-04-25T05:22:47;6.68;;;3.72;;
20375;SDS011;10347;51.828;6.466;2023-04-25T05:25:13;10.35;;;3.40;;
20375;SDS011;10347;51.828;6.466;2023-04-25T05:27:38;6.35;;;3.35;;
20375;SDS011;10347;51.828;6.466;2023-04-25T05:30:04;8.52;;;3.08;;
20375;SDS011;10347;51.828;6.466;2023-04-25T05:32:30;6.22;;;2.88;;
20375;SDS011;10347;51.828;6.466;2023-04-25T05:34:56;8.43;;;3.10;;
20375;SDS011;10347;51.828;6.466;2023-04-25T05:37:21;8.18;;;3.20;;
20375;SDS011;10347;51.828;6.466;2023-04-25T05:39:47;8.60;;;3.08;;
20375;SDS011;10347;51.828;6.466;2023-04-25T05:42:12;8.93;;;3.35;;
20375;SDS011;10347;51.828;6.466;2023-04-25T05:44:38;12.73;;;3.63;;
20375;SDS011;10347;51.828;6.466;2023-04-25T05:47:04;13.23;;;3.83;;
20375;SDS011;10347;51.828;6.466;2023-04-25T05:49:30;10.63;;;4.05;;
20375;SDS011;10347;51.828;6.466;2023-04-25T05:51:55;12.40;;;3.65;;
20375;SDS011;10347;51.828;6.466;2023-04-25T05:54:21;12.35;;;4.60;;
20375;SDS011;10347;51.828;6.466;2023-04-25T05:56:46;9.75;;;3.90;;
20375;SDS011;10347;51.828;6.466;2023-04-25T05:59:12;9.52;;;3.75;;
20375;SDS011;10347;51.828;6.466;2023-04-25T06:01:37;11.13;;;3.78;;
20375;SDS011;10347;51.828;6.466;2023-04-25T06:04:03;7.18;;;3.20;;
20375;SDS011;10347;51.828;6.466;2023-04-25T06:06:29;9.68;;;3.63;;
20375;SDS011;10347;51.828;6.466;2023-04-25T06:08:55;10.10;;;3.15;;
20375;SDS011;10347;51.828;6.466;2023-04-25T06:11:20;9.10;;;3.03;;
20375;SDS011;10347;51.828;6.466;2023-04-25T06:13:46;6.55;;;2.83;;
20375;SDS011;10347;51.828;6.466;2023-04-25T06:16:11;6.82;;;3.00;;
20375;SDS011;10347;51.828;6.466;2023-04-25T06:18:37;4.90;;;2.80;;
20375;SDS011;10347;51.828;6.466;2023-04-25T06:21:03;5.53;;;2.53;;
20375;SDS011;10347;51.828;6.466;2023-04-25T06:23:28;9.85;;;3.58;;
20375;SDS011;10347;51.828;6.466;2023-04-25T06:25:54;8.10;;;3.25;;
20375;SDS011;10347;51.828;6.466;2023-04-25T06:28:19;9.85;;;2.95;;
20375;SDS011;10347;51.828;6.466;2023-04-25T06:30:46;4.05;;;2.75;;
20375;SDS011;10347;51.828;6.466;2023-04-25T06:33:12;6.88;;;3.05;;
20375;SDS011;10347;51.828;6.466;2023-04-25T06:35:38;9.50;;;2.92;;
20375;SDS011;10347;51.828;6.466;2023-04-25T06:38:03;9.32;;;2.70;;
20375;SDS011;10347;51.828;6.466;2023-04-25T06:40:29;5.78;;;2.40;;
20375;SDS011;10347;51.828;6.466;2023-04-25T06:42:54;5.97;;;2.67;;
20375;SDS011;10347;51.828;6.466;2023-04-25T06:45:20;9.05;;;3.28;;
20375;SDS011;10347;51.828;6.466;2023-04-25T06:47:45;4.95;;;2.28;;
20375;SDS011;10347;51.828;6.466;2023-04-25T06:50:11;8.52;;;2.55;;
20375;SDS011;10347;51.828;6.466;2023-04-25T06:52:36;12.25;;;2.83;;
20375;SDS011;10347;51.828;6.466;2023-04-25T06:55:02;6.72;;;2.67;;
20375;SDS011;10347;51.828;6.466;2023-04-25T06:57:28;3.78;;;2.30;;
20375;SDS011;10347;51.828;6.466;2023-04-25T06:59:54;4.03;;;2.30;;
20375;SDS011;10347;51.828;6.466;2023-04-25T07:02:20;4.82;;;1.77;;
20375;SDS011;10347;51.828;6.466;2023-04-25T07:04:46;9.23;;;2.55;;
20375;SDS011;10347;51.828;6.466;2023-04-25T07:07:12;4.88;;;2.13;;
20375;SDS011;10347;51.828;6.466;2023-04-25T07:09:37;2.95;;;1.80;;
20375;SDS011;10347;51.828;6.466;2023-04-25T07:12:03;3.33;;;1.85;;
20375;SDS011;10347;51.828;6.466;2023-04-25T07:14:29;3.78;;;1.70;;
20375;SDS011;10347;51.828;6.466;2023-04-25T07:16:55;5.70;;;2.15;;
20375;SDS011;10347;51.828;6.466;2023-04-25T07:19:21;3.63;;;2.10;;
20375;SDS011;10347;51.828;6.466;2023-04-25T07:21:48;5.43;;;1.90;;
20375;SDS011;10347;51.828;6.466;2023-04-25T07:24:14;4.15;;;1.67;;
20375;SDS011;10347;51.828;6.466;2023-04-25T07:26:40;3.58;;;1.65;;
20375;SDS011;10347;51.828;6.466;2023-04-25T07:29:05;4.30;;;1.65;;
20375;SDS011;10347;51.828;6.466;2023-04-25T07:31:31;5.28;;;1.67;;
20375;SDS011;10347;51.828;6.466;2023-04-25T07:33:56;3.50;;;1.70;;
20375;SDS011;10347;51.828;6.466;2023-04-25T07:36:22;3.92;;;2.05;;
20375;SDS011;10347;51.828;6.466;2023-04-25T07:38:47;4.10;;;1.70;;
20375;SDS011;10347;51.828;6.466;2023-04-25T07:41:13;7.72;;;2.30;;
20375;SDS011;10347;51.828;6.466;2023-04-25T07:43:39;4.75;;;2.08;;
20375;SDS011;10347;51.828;6.466;2023-04-25T07:46:04;4.38;;;2.05;;
20375;SDS011;10347;51.828;6.466;2023-04-25T07:48:30;2.33;;;1.90;;
20375;SDS011;10347;51.828;6.466;2023-04-25T07:50:55;5.82;;;1.70;;
20375;SDS011;10347;51.828;6.466;2023-04-25T07:53:21;6.68;;;2.35;;
20375;SDS011;10347;51.828;6.466;2023-04-25T07:55:46;8.68;;;2.17;;
20375;SDS011;10347;51.828;6.466;2023-04-25T07:58:12;6.18;;;2.67;;
20375;SDS011;10347;51.828;6.466;2023-04-25T08:00:38;5.78;;;2.20;;
20375;SDS011;10347;51.828;6.466;2023-04-25T08:03:04;6.25;;;2.10;;
20375;SDS011;10347;51.828;6.466;2023-04-25T08:05:30;6.95;;;2.20;;
20375;SDS011;10347;51.828;6.466;2023-04-25T08:07:55;7.88;;;2.42;;
20375;SDS011;10347;51.828;6.466;2023-04-25T08:10:21;3.60;;;2.03;;
20375;SDS011;10347;51.828;6.466;2023-04-25T08:12:48;6.63;;;2.17;;
20375;SDS011;10347;51.828;6.466;2023-04-25T08:15:14;5.40;;;2.20;;
20375;SDS011;10347;51.828;6.466;2023-04-25T08:17:39;9.07;;;2.78;;
20375;SDS011;10347;51.828;6.466;2023-04-25T08:20:05;3.90;;;2.20;;
20375;SDS011;10347;51.828;6.466;2023-04-25T08:22:31;7.68;;;2.33;;
20375;SDS011;10347;51.828;6.466;2023-04-25T08:24:57;7.07;;;2.42;;
20375;SDS011;10347;51.828;6.466;2023-04-25T08:27:23;6.00;;;2.00;;
20375;SDS011;10347;51.828;6.466;2023-04-25T08:29:48;6.38;;;2.22;;
20375;SDS011;10347;51.828;6.466;2023-04-25T08:32:14;8.23;;;1.75;;
20375;SDS011;10347;51.828;6.466;2023-04-25T08:34:40;5.10;;;1.98;;
20375;SDS011;10347;51.828;6.466;2023-04-25T08:37:07;5.55;;;1.95;;
20375;SDS011;10347;51.828;6.466;2023-04-25T08:39:34;7.85;;;2.13;;
20375;SDS011;10347;51.828;6.466;2023-04-25T08:42:00;6.93;;;2.42;;
20375;SDS011;10347;51.828;6.466;2023-04-25T08:44:31;8.30;;;2.22;;
20375;SDS011;10347;51.828;6.466;2023-04-25T08:46:58;10.32;;;2.17;;
20375;SDS011;10347;51.828;6.466;2023-04-25T08:49:24;8.82;;;2.20;;
20375;SDS011;10347;51.828;6.466;2023-04-25T08:51:50;8.52;;;2.45;;
20375;SDS011;10347;51.828;6.466;2023-04-25T08:54:18;5.95;;;1.90;;
20375;SDS011;10347;51.828;6.466;2023-04-25T08:56:46;7.00;;;1.90;;
20375;SDS011;10347;51.828;6.466;2023-04-25T08:59:12;4.28;;;2.05;;
20375;SDS011;10347;51.828;6.466;2023-04-25T09:01:38;4.05;;;1.80;;
20375;SDS011;10347;51.828;6.466;2023-04-25T09:04:04;2.97;;;1.65;;
20375;SDS011;10347;51.828;6.466;2023-04-25T09:06:30;7.32;;;1.88;;
20375;SDS011;10347;51.828;6.466;2023-04-25T09:09:03;9.85;;;1.90;;
20375;SDS011;10347;51.828;6.466;2023-04-25T09:11:30;5.25;;;2.22;;
20375;SDS011;10347;51.828;6.466;2023-04-25T09:19:23;11.93;;;3.30;;
20375;SDS011;10347;51.828;6.466;2023-04-25T09:21:50;14.40;;;4.82;;
20375;SDS011;10347;51.828;6.466;2023-04-25T09:24:16;5.78;;;3.05;;
20375;SDS011;10347;51.828;6.466;2023-04-25T09:26:45;6.75;;;3.42;;
20375;SDS011;10347;51.828;6.466;2023-04-25T09:29:10;6.00;;;3.00;;
20375;SDS011;10347;51.828;6.466;2023-04-25T09:31:36;5.60;;;3.63;;
20375;SDS011;10347;51.828;6.466;2023-04-25T09:34:01;5.35;;;3.25;;
20375;SDS011;10347;51.828;6.466;2023-04-25T09:36:27;2.65;;;2.13;;
20375;SDS011;10347;51.828;6.466;2023-04-25T09:38:54;4.00;;;2.08;;
20375;SDS011;10347;51.828;6.466;2023-04-25T09:41:23;4.80;;;1.50;;
20375;SDS011;10347;51.828;6.466;2023-04-25T09:43:49;3.20;;;1.60;;
20375;SDS011;10347;51.828;6.466;2023-04-25T09:46:15;2.88;;;1.38;;
20375;SDS011;10347;51.828;6.466;2023-04-25T09:48:46;6.43;;;1.75;;
20375;SDS011;10347;51.828;6.466;2023-04-25T09:51:14;2.45;;;1.40;;
20375;SDS011;10347;51.828;6.466;2023-04-25T09:53:41;4.45;;;2.03;;
20375;SDS011;10347;51.828;6.466;2023-04-25T09:56:08;4.32;;;1.85;;
20375;SDS011;10347;51.828;6.466;2023-04-25T09:58:37;2.42;;;1.70;;
20375;SDS011;10347;51.828;6.466;2023-04-25T10:01:05;2.03;;;1.60;;
20375;SDS011;10347;51.828;6.466;2023-04-25T10:03:41;1.40;;;1.30;;
20375;SDS011;10347;51.828;6.466;2023-04-25T10:06:15;5.00;;;1.52;;
20375;SDS011;10347;51.828;6.466;2023-04-25T10:08:44;3.90;;;1.58;;
20375;SDS011;10347;51.828;6.466;2023-04-25T10:11:10;3.00;;;1.60;;
20375;SDS011;10347;51.828;6.466;2023-04-25T10:13:39;6.25;;;2.08;;
20375;SDS011;10347;51.828;6.466;2023-04-25T10:16:05;4.05;;;1.90;;
20375;SDS011;10347;51.828;6.466;2023-04-25T10:18:31;5.47;;;1.98;;
20375;SDS011;10347;51.828;6.466;2023-04-25T10:21:01;4.15;;;1.70;;
20375;SDS011;10347;51.828;6.466;2023-04-25T10:23:27;9.93;;;2.30;;
20375;SDS011;10347;51.828;6.466;2023-04-25T10:25:55;5.45;;;1.85;;
20375;SDS011;10347;51.828;6.466;2023-04-25T10:28:21;4.75;;;1.65;;
20375;SDS011;10347;51.828;6.466;2023-04-25T10:33:44;5.45;;;1.77;;
20375;SDS011;10347;51.828;6.466;2023-04-25T10:36:14;4.10;;;1.65;;
20375;SDS011;10347;51.828;6.466;2023-04-25T10:38:42;4.30;;;1.60;;
20375;SDS011;10347;51.828;6.466;2023-04-25T10:41:09;5.43;;;2.05;;
20375;SDS011;10347;51.828;6.466;2023-04-25T10:43:43;4.60;;;1.88;;
20375;SDS011;10347;51.828;6.466;2023-04-25T10:46:19;3.50;;;1.45;;
20375;SDS011;10347;51.828;6.466;2023-04-25T10:51:18;5.38;;;1.90;;
20375;SDS011;10347;51.828;6.466;2023-04-25T10:53:46;2.78;;;1.30;;
20375;SDS011;10347;51.828;6.466;2023-04-25T10:58:48;6.55;;;1.67;;
20375;SDS011;10347;51.828;6.466;2023-04-25T11:01:14;5.93;;;1.90;;
20375;SDS011;10347;51.828;6.466;2023-04-25T11:03:45;2.88;;;1.60;;
20375;SDS011;10347;51.828;6.466;2023-04-25T11:06:18;3.42;;;1.45;;
20375;SDS011;10347;51.828;6.466;2023-04-25T11:08:51;4.30;;;1.60;;
20375;SDS011;10347;51.828;6.466;2023-04-25T11:11:17;5.90;;;1.85;;
20375;SDS011;10347;51.828;6.466;2023-04-25T11:13:43;5.18;;;1.50;;
20375;SDS011;10347;51.828;6.466;2023-04-25T11:16:12;5.95;;;2.15;;
20375;SDS011;10347;51.828;6.466;2023-04-25T11:18:37;2.20;;;1.40;;
20375;SDS011;10347;51.828;6.466;2023-04-25T11:21:05;5.97;;;1.70;;
20375;SDS011;10347;51.828;6.466;2023-04-25T11:23:31;6.50;;;2.63;;
20375;SDS011;10347;51.828;6.466;2023-04-25T11:25:56;5.50;;;2.58;;
20375;SDS011;10347;51.828;6.466;2023-04-25T11:28:22;3.45;;;2.15;;
20375;SDS011;10347;51.828;6.466;2023-04-25T11:30:51;4.13;;;2.17;;
20375;SDS011;10347;51.828;6.466;2023-04-25T11:33:17;10.43;;;2.70;;
20375;SDS011;10347;51.828;6.466;2023-04-25T11:35:43;3.97;;;2.30;;
20375;SDS011;10347;51.828;6.466;2023-04-25T11:38:08;6.95;;;1.80;;
20375;SDS011;10347;51.828;6.466;2023-04-25T11:40:35;5.88;;;2.10;;
20375;SDS011;10347;51.828;6.466;2023-04-25T11:43:01;4.05;;;1.60;;
20375;SDS011;10347;51.828;6.466;2023-04-25T11:45:27;5.03;;;1.60;;
20375;SDS011;10347;51.828;6.466;2023-04-25T11:47:53;3.95;;;1.50;;
20375;SDS011;10347;51.828;6.466;2023-04-25T11:50:19;5.13;;;1.63;;
20375;SDS011;10347;51.828;6.466;2023-04-25T11:52:46;3.28;;;1.58;;
20375;SDS011;10347;51.828;6.466;2023-04-25T11:55:13;5.60;;;1.65;;
20375;SDS011;10347;51.828;6.466;2023-04-25T11:57:39;4.25;;;1.63;;
20375;SDS011;10347;51.828;6.466;2023-04-25T12:00:13;6.63;;;2.08;;
20375;SDS011;10347;51.828;6.466;2023-04-25T12:02:50;4.85;;;1.75;;
20375;SDS011;10347;51.828;6.466;2023-04-25T12:05:23;2.63;;;1.60;;
20375;SDS011;10347;51.828;6.466;2023-04-25T12:07:50;1.98;;;1.40;;
20375;SDS011;10347;51.828;6.466;2023-04-25T12:10:16;3.08;;;1.55;;
20375;SDS011;10347;51.828;6.466;2023-04-25T12:12:43;4.25;;;1.65;;
20375;SDS011;10347;51.828;6.466;2023-04-25T12:17:47;2.60;;;1.35;;
20375;SDS011;10347;51.828;6.466;2023-04-25T12:20:14;4.30;;;1.85;;
20375;SDS011;10347;51.828;6.466;2023-04-25T12:22:42;2.70;;;1.65;;
20375;SDS011;10347;51.828;6.466;2023-04-25T12:25:10;3.30;;;1.38;;
20375;SDS011;10347;51.828;6.466;2023-04-25T12:27:37;2.85;;;1.50;;
20375;SDS011;10347;51.828;6.466;2023-04-25T12:30:05;2.92;;;1.27;;
20375;SDS011;10347;51.828;6.466;2023-04-25T12:32:32;6.38;;;1.55;;
20375;SDS011;10347;51.828;6.466;2023-04-25T12:34:57;1.88;;;1.10;;
20375;SDS011;10347;51.828;6.466;2023-04-25T12:37:23;1.73;;;1.30;;
20375;SDS011;10347;51.828;6.466;2023-04-25T12:39:48;2.13;;;1.10;;
20375;SDS011;10347;51.828;6.466;2023-04-25T12:42:14;2.70;;;1.13;;
20375;SDS011;10347;51.828;6.466;2023-04-25T12:44:39;1.70;;;1.10;;
20375;SDS011;10347;51.828;6.466;2023-04-25T12:47:05;2.20;;;1.30;;
20375;SDS011;10347;51.828;6.466;2023-04-25T12:49:31;1.52;;;1.42;;
20375;SDS011;10347;51.828;6.466;2023-04-25T12:51:57;1.77;;;1.20;;
20375;SDS011;10347;51.828;6.466;2023-04-25T12:54:22;3.08;;;1.33;;
20375;SDS011;10347;51.828;6.466;2023-04-25T12:56:48;3.17;;;1.52;;
20375;SDS011;10347;51.828;6.466;2023-04-25T12:59:15;1.73;;;1.42;;
20375;SDS011;10347;51.828;6.466;2023-04-25T13:01:40;2.35;;;1.17;;
20375;SDS011;10347;51.828;6.466;2023-04-25T13:04:06;2.28;;;1.33;;
20375;SDS011;10347;51.828;6.466;2023-04-25T13:06:31;3.67;;;1.70;;
20375;SDS011;10347;51.828;6.466;2023-04-25T13:08:57;1.02;;;1.02;;
20375;SDS011;10347;51.828;6.466;2023-04-25T13:11:23;2.45;;;1.10;;
20375;SDS011;10347;51.828;6.466;2023-04-25T13:13:48;1.33;;;1.23;;
20375;SDS011;10347;51.828;6.466;2023-04-25T13:16:14;1.17;;;1.08;;
20375;SDS011;10347;51.828;6.466;2023-04-25T13:18:40;3.83;;;1.52;;
20375;SDS011;10347;51.828;6.466;2023-04-25T13:21:05;3.03;;;1.50;;
20375;SDS011;10347;51.828;6.466;2023-04-25T13:23:31;3.58;;;1.63;;
20375;SDS011;10347;51.828;6.466;2023-04-25T13:25:57;7.43;;;1.83;;
20375;SDS011;10347;51.828;6.466;2023-04-25T13:28:23;3.75;;;1.48;;
20375;SDS011;10347;51.828;6.466;2023-04-25T13:30:49;6.95;;;2.00;;
20375;SDS011;10347;51.828;6.466;2023-04-25T13:33:14;5.40;;;1.85;;
20375;SDS011;10347;51.828;6.466;2023-04-25T13:35:40;2.50;;;1.60;;
20375;SDS011;10347;51.828;6.466;2023-04-25T13:38:07;1.42;;;1.30;;
20375;SDS011;10347;51.828;6.466;2023-04-25T13:40:33;3.15;;;1.60;;
20375;SDS011;10347;51.828;6.466;2023-04-25T13:42:59;3.88;;;1.85;;
20375;SDS011;10347;51.828;6.466;2023-04-25T13:45:26;2.78;;;1.30;;
20375;SDS011;10347;51.828;6.466;2023-04-25T13:47:52;3.22;;;1.70;;
20375;SDS011;10347;51.828;6.466;2023-04-25T13:50:17;3.15;;;1.50;;
20375;SDS011;10347;51.828;6.466;2023-04-25T13:52:43;4.90;;;1.70;;
20375;SDS011;10347;51.828;6.466;2023-04-25T13:55:08;6.22;;;1.70;;
20375;SDS011;10347;51.828;6.466;2023-04-25T13:57:35;1.90;;;1.30;;
20375;SDS011;10347;51.828;6.466;2023-04-25T14:00:01;3.05;;;1.50;;
20375;SDS011;10347;51.828;6.466;2023-04-25T14:02:33;2.97;;;1.50;;
20375;SDS011;10347;51.828;6.466;2023-04-25T14:05:02;2.45;;;1.40;;
20375;SDS011;10347;51.828;6.466;2023-04-25T14:07:29;4.05;;;1.50;;
20375;SDS011;10347;51.828;6.466;2023-04-25T14:09:55;3.10;;;1.52;;
20375;SDS011;10347;51.828;6.466;2023-04-25T14:12:22;2.78;;;1.30;;
20375;SDS011;10347;51.828;6.466;2023-04-25T14:14:48;1.38;;;1.10;;
20375;SDS011;10347;51.828;6.466;2023-04-25T14:17:13;3.38;;;1.45;;
20375;SDS011;10347;51.828;6.466;2023-04-25T14:19:39;1.95;;;1.33;;
20375;SDS011;10347;51.828;6.466;2023-04-25T14:22:08;3.10;;;1.17;;
20375;SDS011;10347;51.828;6.466;2023-04-25T14:24:34;2.22;;;1.55;;
20375;SDS011;10347;51.828;6.466;2023-04-25T14:27:00;3.08;;;1.33;;
20375;SDS011;10347;51.828;6.466;2023-04-25T14:29:26;5.13;;;1.65;;
20375;SDS011;10347;51.828;6.466;2023-04-25T14:31:51;3.95;;;1.30;;
20375;SDS011;10347;51.828;6.466;2023-04-25T14:34:18;2.17;;;1.38;;
20375;SDS011;10347;51.828;6.466;2023-04-25T14:36:44;2.70;;;1.65;;
20375;SDS011;10347;51.828;6.466;2023-04-25T14:39:09;3.50;;;1.83;;
20375;SDS011;10347;51.828;6.466;2023-04-25T14:41:35;3.63;;;1.75;;
20375;SDS011;10347;51.828;6.466;2023-04-25T14:44:00;3.20;;;1.42;;
20375;SDS011;10347;51.828;6.466;2023-04-25T14:46:26;4.07;;;1.60;;
20375;SDS011;10347;51.828;6.466;2023-04-25T14:48:52;2.97;;;1.65;;
20375;SDS011;10347;51.828;6.466;2023-04-25T14:51:18;2.63;;;1.25;;
20375;SDS011;10347;51.828;6.466;2023-04-25T14:53:43;2.85;;;1.40;;
20375;SDS011;10347;51.828;6.466;2023-04-25T14:56:09;5.43;;;1.70;;